createdAt,value
2022-11-17T00:00:21.324Z,5.22
2022-11-17T00:02:48.396Z,5.23
2022-11-17T00:05:15.575Z,5.25
2022-11-17T00:07:43.915Z,5.25
2022-11-17T00:10:11.384Z,5.24
2022-11-17T00:12:57.197Z,5.24
2022-11-17T00:15:24.284Z,5.20
2022-11-17T00:18:10.252Z,5.19
2022-11-17T00:20:56.704Z,5.21
2022-11-17T00:23:23.792Z,5.21
2022-11-17T00:25:51.057Z,5.22
2022-11-17T00:28:18.130Z,5.20
2022-11-17T00:31:04.069Z,5.21
2022-11-17T00:33:49.671Z,5.19
2022-11-17T00:36:16.775Z,5.19
2022-11-17T00:38:43.839Z,5.20
2022-11-17T00:41:10.853Z,5.21
2022-11-17T00:43:37.979Z,5.21
2022-11-17T00:46:05.117Z,5.23
2022-11-17T00:48:32.142Z,5.24
2022-11-17T00:51:02.926Z,5.25
2022-11-17T00:53:29.963Z,5.26
2022-11-17T00:55:57.055Z,5.27
2022-11-17T00:58:24.099Z,5.25
2022-11-17T01:00:51.173Z,5.25
2022-11-17T01:03:18.230Z,5.24
2022-11-17T01:05:45.261Z,5.25
2022-11-17T01:08:12.278Z,5.25
2022-11-17T01:10:39.417Z,5.26
2022-11-17T01:13:06.412Z,5.26
2022-11-17T01:15:34.218Z,5.28
2022-11-17T01:18:01.284Z,5.29
2022-11-17T01:20:28.328Z,5.28
2022-11-17T01:22:55.505Z,5.28
2022-11-17T01:25:22.574Z,5.29
2022-11-17T01:27:49.630Z,5.28
2022-11-17T01:30:18.187Z,5.29
2022-11-17T01:32:45.407Z,5.29
2022-11-17T01:35:12.434Z,5.30
2022-11-17T01:37:39.477Z,5.30
2022-11-17T01:40:06.934Z,5.30
2022-11-17T01:42:33.939Z,5.30
2022-11-17T01:45:02.372Z,5.32
2022-11-17T01:47:32.996Z,5.32
2022-11-17T01:50:19.912Z,5.33
2022-11-17T01:52:48.296Z,5.33
2022-11-17T01:55:15.379Z,5.34
2022-11-17T01:57:46.183Z,5.34
2022-11-17T02:00:13.516Z,5.32
2022-11-17T02:02:41.091Z,5.30
2022-11-17T02:05:20.154Z,5.30
2022-11-17T02:07:49.420Z,5.28
2022-11-17T02:10:16.688Z,5.27
2022-11-17T02:12:44.635Z,5.28
2022-11-17T02:15:11.993Z,5.27
2022-11-17T02:17:40.630Z,5.27
2022-11-17T02:20:10.279Z,5.26
2022-11-17T02:22:52.694Z,5.28
2022-11-17T02:25:38.292Z,5.28
2022-11-17T02:28:13.240Z,5.29
2022-11-17T02:30:49.272Z,5.25
2022-11-17T02:33:29.237Z,5.25
2022-11-17T02:36:01.158Z,5.24
2022-11-17T02:38:31.059Z,5.24
2022-11-17T02:41:04.421Z,5.22
2022-11-17T02:43:53.101Z,5.19
2022-11-17T02:46:21.958Z,5.20
2022-11-17T02:48:54.522Z,5.22
2022-11-17T02:51:23.081Z,5.20
2022-11-17T02:53:52.096Z,5.19
2022-11-17T02:56:19.234Z,5.19
2022-11-17T02:58:49.879Z,5.18
2022-11-17T03:01:16.948Z,5.16
2022-11-17T03:03:50.119Z,5.17
2022-11-17T03:06:22.928Z,5.16
2022-11-17T03:09:16.153Z,5.18
2022-11-17T03:11:50.099Z,5.19
2022-11-17T03:14:24.220Z,5.20
2022-11-17T03:17:14.374Z,5.20
2022-11-17T03:19:44.625Z,5.20
2022-11-17T03:22:17.932Z,5.19
2022-11-17T03:24:50.888Z,5.18
2022-11-17T03:27:21.067Z,5.19
2022-11-17T03:29:50.476Z,5.15
2022-11-17T03:32:18.086Z,5.13
2022-11-17T03:34:54.036Z,5.15
2022-11-17T03:37:22.571Z,5.13
2022-11-17T03:39:51.800Z,5.09
2022-11-17T03:42:22.119Z,5.09
2022-11-17T03:45:09.424Z,5.07
2022-11-17T03:47:36.824Z,5.10
2022-11-17T03:50:06.118Z,5.09
2022-11-17T03:52:33.788Z,5.09
2022-11-17T03:55:01.255Z,5.08
2022-11-17T03:57:31.415Z,5.08
2022-11-17T04:00:04.800Z,5.07
2022-11-17T04:02:43.355Z,5.07
2022-11-17T04:05:11.265Z,5.09
2022-11-17T04:07:42.199Z,5.08
2022-11-17T04:10:14.229Z,5.06
2022-11-17T04:13:00.945Z,5.05
2022-11-17T04:15:47.179Z,5.05
2022-11-17T04:18:14.702Z,5.04
2022-11-17T04:20:42.205Z,5.05
2022-11-17T04:23:11.471Z,5.02
2022-11-17T04:25:58.783Z,5.03
2022-11-17T04:28:38.643Z,5.05
2022-11-17T04:31:06.957Z,5.02
2022-11-17T04:33:34.793Z,5.05
2022-11-17T04:36:02.719Z,5.04
2022-11-17T04:38:29.813Z,5.04
2022-11-17T04:41:25.479Z,5.05
2022-11-17T04:43:52.829Z,5.05
2022-11-17T04:46:20.911Z,5.04
2022-11-17T04:48:48.208Z,5.02
2022-11-17T04:51:18.383Z,5.00
2022-11-17T04:53:45.516Z,4.99
2022-11-17T04:56:13.212Z,4.97
2022-11-17T04:58:40.999Z,4.97
2022-11-17T05:01:14.060Z,5.00
2022-11-17T05:03:41.284Z,5.00
2022-11-17T05:06:08.926Z,5.02
2022-11-17T05:08:37.551Z,5.01
2022-11-17T05:11:23.534Z,5.03
2022-11-17T05:13:50.950Z,5.01
2022-11-17T05:16:37.220Z,5.02
2022-11-17T05:19:05.299Z,5.05
2022-11-17T05:21:32.463Z,5.06
2022-11-17T05:23:59.910Z,5.06
2022-11-17T05:26:31.322Z,5.07
2022-11-17T05:28:59.273Z,5.07
2022-11-17T05:31:26.990Z,5.07
2022-11-17T05:33:54.888Z,5.09
2022-11-17T05:36:22.595Z,5.07
2022-11-17T05:38:50.088Z,5.08
2022-11-17T05:41:17.607Z,5.08
2022-11-17T05:43:44.774Z,5.09
2022-11-17T05:46:12.199Z,5.09
2022-11-17T05:48:39.707Z,5.11
2022-11-17T05:51:06.756Z,5.11
2022-11-17T05:53:34.226Z,5.10
2022-11-17T05:56:07.828Z,5.09
2022-11-17T05:58:36.643Z,5.12
2022-11-17T06:01:04.084Z,5.12
2022-11-17T06:03:38.327Z,5.11
2022-11-17T06:06:05.698Z,5.13
2022-11-17T06:08:32.753Z,5.12
2022-11-17T06:10:59.841Z,5.11
2022-11-17T06:13:29.083Z,5.11
2022-11-17T06:15:57.534Z,5.12
2022-11-17T06:18:28.079Z,5.12
2022-11-17T06:20:55.222Z,5.12
2022-11-17T06:23:25.809Z,5.12
2022-11-17T06:25:52.998Z,5.13
2022-11-17T06:28:21.385Z,5.12
2022-11-17T06:30:49.100Z,5.13
2022-11-17T06:33:17.530Z,5.13
2022-11-17T06:35:45.443Z,5.14
2022-11-17T06:38:12.482Z,5.13
2022-11-17T06:40:39.579Z,5.13
2022-11-17T06:43:09.817Z,5.12
2022-11-17T06:45:40.059Z,5.11
2022-11-17T06:48:07.844Z,5.12
2022-11-17T06:50:35.035Z,5.11
2022-11-17T06:53:03.524Z,5.14
2022-11-17T06:55:31.009Z,5.14
2022-11-17T06:57:59.314Z,5.15
2022-11-17T07:00:26.916Z,5.14
2022-11-17T07:02:58.807Z,5.15
2022-11-17T07:05:28.457Z,5.16
2022-11-17T07:07:59.421Z,5.17
2022-11-17T07:10:27.214Z,5.17
2022-11-17T07:12:54.562Z,5.17
2022-11-17T07:15:21.922Z,5.17
2022-11-17T07:17:49.013Z,5.15
2022-11-17T07:20:16.498Z,5.15
2022-11-17T07:22:44.030Z,5.14
2022-11-17T07:25:11.870Z,5.14
2022-11-17T07:27:39.050Z,5.15
2022-11-17T07:30:06.721Z,5.16
2022-11-17T07:32:34.155Z,5.18
2022-11-17T07:35:05.948Z,5.18
2022-11-17T07:37:33.621Z,5.17
2022-11-17T07:40:00.763Z,5.18
2022-11-17T07:42:27.852Z,5.19
2022-11-17T07:44:54.915Z,5.19
2022-11-17T07:47:22.003Z,5.18
2022-11-17T07:49:49.301Z,5.21
2022-11-17T07:52:16.361Z,5.21
2022-11-17T07:54:43.533Z,5.21
2022-11-17T07:57:10.597Z,5.22
2022-11-17T07:59:37.681Z,5.22
2022-11-17T08:02:04.870Z,5.22
2022-11-17T08:04:31.899Z,5.23
2022-11-17T08:06:58.992Z,5.23
2022-11-17T08:09:26.168Z,5.24
2022-11-17T08:11:53.227Z,5.24
2022-11-17T08:14:20.266Z,5.25
2022-11-17T08:16:47.310Z,5.25
2022-11-17T08:19:14.486Z,5.23
2022-11-17T08:21:41.590Z,5.25
2022-11-17T08:24:08.699Z,5.27
2022-11-17T08:26:35.853Z,5.28
2022-11-17T08:29:02.957Z,5.31
2022-11-17T08:31:30.069Z,5.33
2022-11-17T08:33:57.125Z,5.35
2022-11-17T08:36:24.225Z,5.38
2022-11-17T08:38:51.377Z,5.39
2022-11-17T08:41:19.708Z,5.41
2022-11-17T08:43:46.749Z,5.41
2022-11-17T08:46:13.849Z,5.41
2022-11-17T08:48:41.041Z,5.40
2022-11-17T08:51:08.934Z,5.43
2022-11-17T08:53:35.917Z,5.44
2022-11-17T08:56:06.572Z,5.45
2022-11-17T08:58:38.186Z,5.47
2022-11-17T09:01:07.224Z,5.53
2022-11-17T09:03:34.267Z,5.55
2022-11-17T09:06:02.220Z,5.57
2022-11-17T09:08:56.251Z,5.61
2022-11-17T09:11:16.624Z,5.64
2022-11-17T09:13:45.693Z,5.70
2022-11-17T09:16:13.720Z,5.78
2022-11-17T09:18:41.547Z,5.78
2022-11-17T09:21:10.300Z,5.76
2022-11-17T09:23:37.690Z,5.75
2022-11-17T09:26:06.568Z,5.74
2022-11-17T09:28:34.083Z,5.78
2022-11-17T09:31:27.717Z,5.79
2022-11-17T09:33:55.571Z,5.82
2022-11-17T09:36:24.442Z,5.85
2022-11-17T09:38:51.819Z,5.86
2022-11-17T09:41:26.692Z,5.88
2022-11-17T09:44:19.985Z,5.91
2022-11-17T09:47:01.816Z,5.92
2022-11-17T09:49:37.903Z,5.93
2022-11-17T09:52:15.321Z,5.94
2022-11-17T09:54:46.996Z,5.90
2022-11-17T09:57:40.333Z,5.90
2022-11-17T10:00:07.620Z,5.89
2022-11-17T10:02:34.769Z,5.91
2022-11-17T10:05:01.953Z,5.92
2022-11-17T10:07:30.286Z,5.92
2022-11-17T10:09:58.330Z,5.93
2022-11-17T10:12:26.707Z,5.91
2022-11-17T10:14:54.518Z,5.91
2022-11-17T10:17:21.658Z,5.92
2022-11-17T10:19:48.702Z,5.93
2022-11-17T10:22:33.703Z,5.92
2022-11-17T10:25:00.808Z,5.91
2022-11-17T10:27:29.687Z,5.93
2022-11-17T10:30:07.031Z,5.94
2022-11-17T10:32:39.334Z,5.97
2022-11-17T10:35:20.579Z,5.99
2022-11-17T10:37:58.839Z,6.01
2022-11-17T10:40:27.655Z,6.04
2022-11-17T10:43:04.722Z,6.07
2022-11-17T10:45:32.471Z,6.10
2022-11-17T10:48:18.415Z,6.11
2022-11-17T10:50:57.397Z,6.13
2022-11-17T10:53:26.417Z,6.15
2022-11-17T10:55:56.059Z,6.18
2022-11-17T10:58:25.187Z,6.18
2022-11-17T11:00:59.528Z,6.21
2022-11-17T11:03:49.150Z,6.25
2022-11-17T11:06:23.954Z,6.28
2022-11-17T11:08:55.412Z,6.31
2022-11-17T11:11:43.244Z,6.32
2022-11-17T11:14:29.449Z,6.34
2022-11-17T11:16:56.563Z,6.37
2022-11-17T11:19:23.617Z,6.37
2022-11-17T11:22:09.005Z,6.40
2022-11-17T11:24:45.206Z,6.44
2022-11-17T11:27:24.521Z,6.47
2022-11-17T11:30:01.238Z,6.51
2022-11-17T11:32:31.341Z,6.54
2022-11-17T11:35:03.844Z,6.57
2022-11-17T11:37:37.607Z,6.58
2022-11-17T11:40:27.285Z,6.60
2022-11-17T11:43:04.996Z,6.60
2022-11-17T11:45:55.014Z,6.60
2022-11-17T11:48:32.304Z,6.61
2022-11-17T11:51:02.345Z,6.63
2022-11-17T11:53:44.540Z,6.64
2022-11-17T11:56:14.524Z,6.66
2022-11-17T11:58:44.898Z,6.68
2022-11-17T12:01:13.042Z,6.72
2022-11-17T12:03:42.981Z,6.76
2022-11-17T12:06:36.854Z,6.79
2022-11-17T12:09:10.089Z,6.82
2022-11-17T12:11:58.744Z,6.86
2022-11-17T12:14:26.459Z,6.87
2022-11-17T12:17:26.104Z,6.92
2022-11-17T12:19:57.200Z,6.96
2022-11-17T12:22:40.694Z,6.99
2022-11-17T12:25:17.276Z,7.03
2022-11-17T12:27:46.906Z,7.09
2022-11-17T12:30:32.821Z,7.12
2022-11-17T12:33:04.779Z,7.20
2022-11-17T12:35:39.190Z,7.25
2022-11-17T12:38:15.383Z,7.28
2022-11-17T12:40:44.285Z,7.38
2022-11-17T12:43:23.385Z,7.48
2022-11-17T12:45:53.244Z,7.58
2022-11-17T12:48:34.130Z,7.64
2022-11-17T12:51:06.200Z,7.68
2022-11-17T12:53:38.492Z,7.71
2022-11-17T12:56:24.368Z,7.74
2022-11-17T12:58:51.418Z,7.81
2022-11-17T13:01:42.172Z,7.85
2022-11-17T13:04:12.774Z,7.92
2022-11-17T13:06:57.933Z,8.01
2022-11-17T13:09:26.905Z,8.06
2022-11-17T13:12:01.296Z,8.09
2022-11-17T13:14:28.466Z,8.03
2022-11-17T13:16:55.542Z,8.00
2022-11-17T13:19:32.697Z,8.02
2022-11-17T13:22:01.326Z,8.06
2022-11-17T13:24:30.345Z,8.08
2022-11-17T13:26:58.294Z,8.09
2022-11-17T13:29:25.362Z,8.09
2022-11-17T13:32:05.838Z,8.08
2022-11-17T13:34:33.012Z,8.07
2022-11-17T13:37:00.953Z,8.07
2022-11-17T13:39:28.224Z,8.07
2022-11-17T13:41:58.224Z,8.06
2022-11-17T13:44:26.736Z,8.07
2022-11-17T13:46:53.810Z,8.07
2022-11-17T13:49:36.944Z,8.05
2022-11-17T13:52:05.829Z,8.04
2022-11-17T13:54:33.022Z,8.01
2022-11-17T13:57:08.842Z,8.01
2022-11-17T13:59:37.227Z,8.00
2022-11-17T14:02:16.446Z,7.99
2022-11-17T14:05:02.271Z,7.99
2022-11-17T14:07:30.397Z,7.97
2022-11-17T14:10:16.320Z,7.96
2022-11-17T14:12:43.455Z,7.96
2022-11-17T14:15:15.229Z,7.96
2022-11-17T14:17:48.016Z,7.97
2022-11-17T14:20:20.045Z,7.97
2022-11-17T14:23:03.061Z,7.99
2022-11-17T14:25:30.301Z,8.02
2022-11-17T14:27:57.356Z,8.03
2022-11-17T14:30:24.456Z,8.04
2022-11-17T14:32:52.222Z,8.01
2022-11-17T14:35:19.559Z,7.99
2022-11-17T14:37:46.911Z,7.96
2022-11-17T14:40:15.001Z,7.95
2022-11-17T14:42:42.049Z,7.94
2022-11-17T14:45:12.186Z,7.93
2022-11-17T14:47:39.403Z,7.91
2022-11-17T14:50:07.153Z,7.90
2022-11-17T14:52:34.216Z,7.89
2022-11-17T14:55:01.231Z,7.90
2022-11-17T14:57:28.304Z,7.91
2022-11-17T14:59:55.371Z,7.90
2022-11-17T15:02:23.037Z,7.89
2022-11-17T15:04:51.445Z,7.87
2022-11-17T15:07:19.871Z,7.83
2022-11-17T15:09:48.772Z,7.83
2022-11-17T15:12:16.342Z,7.80
2022-11-17T15:14:43.630Z,7.76
2022-11-17T15:17:14.396Z,7.74
2022-11-17T15:19:42.434Z,7.71
2022-11-17T15:22:09.452Z,7.69
2022-11-17T15:24:36.529Z,7.66
2022-11-17T15:27:03.645Z,7.63
2022-11-17T15:29:30.660Z,7.59
2022-11-17T15:31:57.772Z,7.57
2022-11-17T15:34:24.840Z,7.52
2022-11-17T15:36:51.905Z,7.49
2022-11-17T15:39:19.641Z,7.45
2022-11-17T15:41:47.332Z,7.42
2022-11-17T15:44:14.780Z,7.40
2022-11-17T15:46:47.160Z,7.39
2022-11-17T15:49:15.068Z,7.36
2022-11-17T15:51:42.643Z,7.33
2022-11-17T15:54:19.660Z,7.30
2022-11-17T15:56:47.751Z,7.28
2022-11-17T15:59:15.126Z,7.26
2022-11-17T16:01:42.526Z,7.24
2022-11-17T16:04:10.992Z,7.23
2022-11-17T16:06:39.407Z,7.22
2022-11-17T16:09:06.884Z,7.21
2022-11-17T16:11:34.471Z,7.19
2022-11-17T16:14:01.803Z,7.18
2022-11-17T16:16:31.131Z,7.16
2022-11-17T16:18:58.282Z,7.14
2022-11-17T16:21:25.395Z,7.12
2022-11-17T16:23:54.572Z,7.09
2022-11-17T16:26:22.412Z,7.06
2022-11-17T16:28:49.543Z,7.04
2022-11-17T16:31:19.356Z,7.03
2022-11-17T16:33:50.148Z,7.02
2022-11-17T16:36:17.894Z,7.00
2022-11-17T16:38:59.679Z,6.97
2022-11-17T16:41:31.728Z,6.94
2022-11-17T16:43:59.186Z,6.91
2022-11-17T16:46:27.221Z,6.90
2022-11-17T16:48:54.797Z,6.88
2022-11-17T16:51:22.472Z,6.86
2022-11-17T16:53:54.816Z,6.86
2022-11-17T16:56:21.937Z,6.83
2022-11-17T16:58:49.918Z,6.84
2022-11-17T17:01:18.612Z,6.84
2022-11-17T17:03:45.941Z,6.84
2022-11-17T17:06:14.534Z,6.84
2022-11-17T17:08:41.551Z,6.87
2022-11-17T17:11:10.753Z,6.88
2022-11-17T17:13:38.429Z,6.87
2022-11-17T17:16:09.777Z,6.88
2022-11-17T17:18:37.329Z,6.90
2022-11-17T17:21:04.718Z,6.91
2022-11-17T17:23:32.068Z,6.93
2022-11-17T17:26:01.739Z,6.90
2022-11-17T17:28:29.480Z,6.88
2022-11-17T17:30:56.558Z,6.86
2022-11-17T17:33:23.615Z,6.84
2022-11-17T17:35:50.753Z,6.81
2022-11-17T17:38:17.958Z,6.81
2022-11-17T17:40:45.006Z,6.79
2022-11-17T17:43:14.115Z,6.78
2022-11-17T17:45:41.185Z,6.77
2022-11-17T17:48:08.202Z,6.77
2022-11-17T17:50:35.326Z,6.76
2022-11-17T17:53:02.380Z,6.72
2022-11-17T17:55:30.944Z,6.70
2022-11-17T17:57:58.022Z,6.68
2022-11-17T18:00:25.171Z,6.67
2022-11-17T18:02:52.252Z,6.64
2022-11-17T18:05:22.420Z,6.61
2022-11-17T18:07:49.739Z,6.57
2022-11-17T18:10:16.862Z,6.56
2022-11-17T18:12:43.967Z,6.49
2022-11-17T18:15:11.186Z,6.46
2022-11-17T18:17:38.192Z,6.43
2022-11-17T18:20:05.536Z,6.39
2022-11-17T18:22:32.546Z,6.36
2022-11-17T18:24:59.580Z,6.35
2022-11-17T18:27:26.596Z,6.34
2022-11-17T18:29:53.625Z,6.30
2022-11-17T18:32:20.770Z,6.30
2022-11-17T18:34:47.848Z,6.31
2022-11-17T18:37:14.896Z,6.28
2022-11-17T18:39:41.975Z,6.27
2022-11-17T18:42:09.053Z,6.26
2022-11-17T18:44:36.095Z,6.26
2022-11-17T18:47:03.403Z,6.23
2022-11-17T18:49:30.941Z,6.23
2022-11-17T18:51:58.032Z,6.23
2022-11-17T18:54:25.060Z,6.21
2022-11-17T18:56:52.178Z,6.18
2022-11-17T18:59:19.631Z,6.18
2022-11-17T19:01:46.771Z,6.16
2022-11-17T19:04:14.151Z,6.15
2022-11-17T19:06:41.631Z,6.15
2022-11-17T19:09:08.783Z,6.16
2022-11-17T19:11:35.876Z,6.17
2022-11-17T19:14:04.126Z,6.17
2022-11-17T19:16:31.944Z,6.18
2022-11-17T19:18:59.335Z,6.19
2022-11-17T19:21:31.628Z,6.19
2022-11-17T19:23:59.444Z,6.19
2022-11-17T19:26:30.955Z,6.19
2022-11-17T19:28:59.239Z,6.19
2022-11-17T19:31:28.187Z,6.18
2022-11-17T19:33:55.863Z,6.19
2022-11-17T19:36:24.806Z,6.20
2022-11-17T19:38:53.048Z,6.20
2022-11-17T19:41:21.384Z,6.22
2022-11-17T19:43:48.824Z,6.21
2022-11-17T19:46:16.593Z,6.24
2022-11-17T19:48:43.957Z,6.28
2022-11-17T19:51:15.078Z,6.27
2022-11-17T19:53:42.224Z,6.30
2022-11-17T19:56:09.383Z,6.31
2022-11-17T19:58:36.449Z,6.33
2022-11-17T20:01:11.462Z,6.33
2022-11-17T20:03:39.156Z,6.36
2022-11-17T20:06:06.526Z,6.35
2022-11-17T20:08:33.687Z,6.37
2022-11-17T20:11:04.857Z,6.38
2022-11-17T20:13:32.319Z,6.38
2022-11-17T20:15:59.961Z,6.38
2022-11-17T20:18:27.601Z,6.37
2022-11-17T20:20:54.736Z,6.35
2022-11-17T20:23:22.064Z,6.35
2022-11-17T20:25:49.153Z,6.35
2022-11-17T20:28:16.334Z,6.34
2022-11-17T20:30:43.398Z,6.32
2022-11-17T20:33:12.494Z,6.33
2022-11-17T20:35:39.582Z,6.35
2022-11-17T20:38:07.288Z,6.35
2022-11-17T20:40:35.734Z,6.36
2022-11-17T20:43:02.871Z,6.38
2022-11-17T20:45:30.147Z,6.38
2022-11-17T20:47:57.189Z,6.38
2022-11-17T20:50:24.256Z,6.36
2022-11-17T20:52:51.520Z,6.35
2022-11-17T20:55:18.587Z,6.37
2022-11-17T20:57:45.740Z,6.37
2022-11-17T21:00:13.032Z,6.37
2022-11-17T21:02:40.095Z,6.37
2022-11-17T21:05:07.346Z,6.36
2022-11-17T21:07:34.545Z,6.36
2022-11-17T21:10:01.647Z,6.35
2022-11-17T21:12:28.681Z,6.36
2022-11-17T21:14:55.692Z,6.37
2022-11-17T21:17:41.421Z,6.37
2022-11-17T21:20:08.848Z,6.37
2022-11-17T21:22:35.898Z,6.37
2022-11-17T21:25:02.969Z,6.37
2022-11-17T21:27:30.040Z,6.37
2022-11-17T21:29:57.134Z,6.36
2022-11-17T21:32:24.153Z,6.37
2022-11-17T21:34:51.698Z,6.37
2022-11-17T21:37:18.876Z,6.37
2022-11-17T21:39:45.938Z,6.37
2022-11-17T21:42:12.984Z,6.37
2022-11-17T21:44:41.233Z,6.37
2022-11-17T21:47:08.451Z,6.37
2022-11-17T21:49:36.010Z,6.37
2022-11-17T21:52:03.066Z,6.37
2022-11-17T21:54:48.434Z,6.36
2022-11-17T21:57:34.131Z,6.38
2022-11-17T22:00:01.152Z,6.37
2022-11-17T22:02:28.202Z,6.38
2022-11-17T22:04:55.287Z,6.37
2022-11-17T22:07:22.425Z,6.37
2022-11-17T22:09:49.541Z,6.37
2022-11-17T22:12:16.569Z,6.38
2022-11-17T22:14:43.645Z,6.37
2022-11-17T22:17:10.673Z,6.35
2022-11-17T22:19:37.774Z,6.35
2022-11-17T22:22:04.974Z,6.33
2022-11-17T22:24:32.012Z,6.32
2022-11-17T22:26:59.151Z,6.32
2022-11-17T22:29:26.579Z,6.32
2022-11-17T22:31:53.654Z,6.31
2022-11-17T22:34:20.830Z,6.34
2022-11-17T22:36:47.877Z,6.33
2022-11-17T22:39:15.929Z,6.32
2022-11-17T22:41:43.185Z,6.30
2022-11-17T22:44:12.790Z,6.29
2022-11-17T22:46:40.611Z,6.31
2022-11-17T22:49:07.702Z,6.30
2022-11-17T22:51:53.301Z,6.31
2022-11-17T22:54:20.380Z,6.31
2022-11-17T22:56:47.531Z,6.30
2022-11-17T22:59:14.905Z,6.30
2022-11-17T23:01:42.145Z,6.30
2022-11-17T23:04:09.254Z,6.30
2022-11-17T23:06:36.300Z,6.32
2022-11-17T23:09:03.410Z,6.32
2022-11-17T23:11:37.104Z,6.31
2022-11-17T23:14:06.127Z,6.31
2022-11-17T23:16:33.347Z,6.29
2022-11-17T23:19:00.494Z,6.29
2022-11-17T23:21:27.533Z,6.28
2022-11-17T23:23:54.617Z,6.27
2022-11-17T23:26:22.426Z,6.26
2022-11-17T23:28:49.461Z,6.27
2022-11-17T23:31:17.228Z,6.24
2022-11-17T23:33:45.497Z,6.24
2022-11-17T23:36:14.115Z,6.23
2022-11-17T23:38:41.225Z,6.22
2022-11-17T23:41:10.440Z,6.19
2022-11-17T23:43:37.446Z,6.18
2022-11-17T23:46:05.591Z,6.16
2022-11-17T23:48:32.880Z,6.14
2022-11-17T23:51:03.877Z,6.12
2022-11-17T23:53:30.981Z,6.10
2022-11-17T23:55:58.090Z,6.10
2022-11-17T23:58:25.160Z,6.10
